Time;durP1;ratioP1;P1;durP2;ratioP2;P2;SDS_P1;SDS_P2;PMS_P1;PMS_P2;Temp;Humidity;BMP_temperature;BMP_pressure;BME280_temperature;BME280_humidity;BME280_pressure;Samples;Min_cycle;Max_cycle;Signal;HPM_P1;HPM_P2
2022/10/29 06:34:05;;;;;;;11.47;3.77;;;14.30;99.90;;;;;;5115973;27;20279;-83
2022/10/29 06:36:31;;;;;;;8.27;2.93;;;;;;;;;;5095921;28;20247;-82
2022/10/29 06:38:57;;;;;;;14.63;2.87;;;;;;;;;;5095797;28;20182;-83
2022/10/29 06:41:26;;;;;;;8.17;2.50;;;;;;;;;;5095259;28;20206;-84
2022/10/29 06:43:52;;;;;;;10.20;2.53;;;14.30;99.90;;;;;;5095392;28;20665;-81
2022/10/29 06:46:18;;;;;;;14.13;3.17;;;;;;;;;;5094428;28;20178;-84
2022/10/29 06:48:44;;;;;;;15.83;2.37;;;;;;;;;;5094622;28;20184;-85
2022/10/29 06:52:58;;;;;;;9.10;2.10;;;14.60;99.90;;;;;;5135116;27;20299;-83
2022/10/29 06:55:25;;;;;;;8.13;2.83;;;14.70;99.90;;;;;;5113117;28;20169;-83
2022/10/29 06:58:02;;;;;;;12.97;2.87;;;14.30;99.90;;;;;;5112728;28;20210;-84
2022/10/29 07:00:28;;;;;;;9.03;2.37;;;14.20;99.90;;;;;;5112669;28;20177;-83
2022/10/29 07:02:55;;;;;;;8.27;2.50;;;;;;;;;;5114235;28;20223;-83
2022/10/29 07:05:21;;;;;;;9.90;2.73;;;;;;;;;;5112648;28;20176;-83
2022/10/29 07:07:48;;;;;;;11.00;2.40;;;;;;;;;;5114053;28;20635;-82
2022/10/29 07:10:14;;;;;;;9.57;2.30;;;;;;;;;;5114700;28;20174;-83
2022/10/29 07:12:43;;;;;;;10.43;2.67;;;14.80;99.90;;;;;;5114576;28;20219;-83
2022/10/29 07:15:10;;;;;;;10.27;2.50;;;14.90;99.90;;;;;;5114596;28;20181;-82
2022/10/29 07:17:36;;;;;;;10.47;2.50;;;15.10;99.90;;;;;;5112522;28;20235;-83
2022/10/29 07:20:02;;;;;;;9.00;2.63;;;;;;;;;;5112046;28;20631;-82
2022/10/29 07:22:28;;;;;;;9.10;2.57;;;15.30;99.90;;;;;;5114027;28;20207;-83
2022/10/29 07:24:53;;;;;;;8.97;2.53;;;15.40;99.90;;;;;;5113241;28;20173;-83
2022/10/29 07:27:19;;;;;;;18.00;3.07;;;15.40;99.90;;;;;;5111962;28;20266;-83
2022/10/29 07:29:45;;;;;;;6.13;2.43;;;;;;;;;;5114338;28;20577;-83
2022/10/29 07:32:10;;;;;;;10.80;2.40;;;15.50;99.90;;;;;;5116077;28;20212;-85
2022/10/29 07:34:36;;;;;;;10.00;2.17;;;15.70;99.90;;;;;;5113791;28;20228;-83
2022/10/29 07:37:02;;;;;;;10.03;2.40;;;15.70;99.90;;;;;;5112864;28;20261;-85
2022/10/29 07:39:28;;;;;;;12.17;3.33;;;;;;;;;;5111186;28;20173;-83
2022/10/29 07:41:53;;;;;;;13.20;2.50;;;15.90;99.90;;;;;;5112418;28;20720;-84
2022/10/29 07:44:19;;;;;;;8.13;2.20;;;15.90;99.90;;;;;;5111722;28;20182;-83
2022/10/29 07:46:45;;;;;;;11.27;2.40;;;;;;;;;;5111662;28;20271;-83
2022/10/29 07:49:11;;;;;;;9.33;2.03;;;16.50;99.90;;;;;;5111431;28;20182;-85
2022/10/29 07:51:36;;;;;;;14.77;3.33;;;17.20;99.90;;;;;;5112904;28;20208;-85
2022/10/29 07:54:02;;;;;;;9.43;2.20;;;17.40;99.90;;;;;;5111364;28;20177;-86
2022/10/29 07:56:28;;;;;;;9.90;2.80;;;17.70;99.90;;;;;;5113415;28;20223;-84
2022/10/29 07:58:53;;;;;;;8.53;2.50;;;18.40;99.90;;;;;;5112238;28;20219;-83
2022/10/29 08:01:19;;;;;;;10.90;2.40;;;;;;;;;;5111640;28;20257;-83
2022/10/29 08:03:45;;;;;;;14.90;3.17;;;18.40;99.90;;;;;;5102190;28;20180;-84
2022/10/29 08:06:11;;;;;;;10.40;3.67;;;;;;;;;;5097729;28;20172;-85
2022/10/29 08:08:37;;;;;;;8.97;3.17;;;17.90;99.90;;;;;;5098237;28;20180;-85
2022/10/29 08:11:03;;;;;;;9.20;3.57;;;18.00;99.90;;;;;;5100839;28;20200;-84
2022/10/29 08:13:30;;;;;;;13.43;4.00;;;18.00;99.90;;;;;;5097267;28;20172;-83
2022/10/29 08:15:55;;;;;;;17.97;4.23;;;18.00;99.90;;;;;;5097329;28;20585;-84
2022/10/29 08:18:21;;;;;;;14.10;6.50;;;18.20;99.90;;;;;;5096994;28;20233;-84
2022/10/29 08:20:47;;;;;;;14.73;5.43;;;18.40;99.90;;;;;;5097412;28;20188;-83
2022/10/29 08:23:13;;;;;;;28.03;10.73;;;;;;;;;;5096618;28;20211;-86
2022/10/29 08:25:41;;;;;;;20.70;9.63;;;18.60;99.90;;;;;;5096720;28;20217;-83
2022/10/29 08:28:09;;;;;;;18.20;7.97;;;18.60;99.90;;;;;;5097037;28;20212;-84
2022/10/29 08:30:34;;;;;;;23.77;9.97;;;18.50;99.90;;;;;;5098189;28;20172;-84
2022/10/29 08:33:00;;;;;;;15.53;6.97;;;18.40;99.90;;;;;;5097822;28;20208;-84
2022/10/29 08:35:26;;;;;;;20.80;8.57;;;;;;;;;;5099834;28;20173;-84
2022/10/29 08:37:52;;;;;;;22.93;8.70;;;18.60;99.90;;;;;;5098516;28;20177;-81
2022/10/29 08:40:44;;;;;;;21.87;10.10;;;18.60;99.90;;;;;;5098230;28;20184;-82
2022/10/29 08:43:09;;;;;;;19.33;7.47;;;18.90;99.90;;;;;;5060936;28;20246;-85
2022/10/29 08:45:45;;;;;;;12.00;6.57;;;19.10;99.90;;;;;;5098293;28;20176;-86
2022/10/29 08:48:27;;;;;;;11.07;6.23;;;19.00;99.90;;;;;;5097071;28;20179;-88
2022/10/29 08:51:03;;;;;;;11.17;4.13;;;18.90;99.90;;;;;;5097819;28;20212;-83
2022/10/29 08:53:40;;;;;;;14.30;4.30;;;18.90;99.90;;;;;;5098479;28;20168;-82
2022/10/29 08:56:15;;;;;;;10.67;3.17;;;18.90;99.90;;;;;;5098137;28;20156;-85
2022/10/29 08:59:05;;;;;;;9.07;3.17;;;19.10;99.90;;;;;;5098535;28;20150;-82
2022/10/29 09:01:31;;;;;;;9.40;3.40;;;19.60;99.90;;;;;;5096623;28;20195;-83
2022/10/29 09:03:57;;;;;;;11.97;2.80;;;19.70;99.90;;;;;;5097689;28;20172;-84
2022/10/29 09:06:37;;;;;;;10.60;3.30;;;19.90;99.90;;;;;;5096781;28;20192;-84
2022/10/29 09:09:30;;;;;;;13.97;2.77;;;20.10;99.90;;;;;;5097899;28;20316;-84
2022/10/29 09:12:39;;;;;;;10.67;3.30;;;20.40;99.90;;;;;;5096499;28;20315;-82
2022/10/29 09:15:27;;;;;;;16.90;3.57;;;20.60;99.90;;;;;;5096112;28;20650;-82
2022/10/29 09:18:12;;;;;;;11.87;3.20;;;20.50;99.90;;;;;;5097413;28;20261;-81
2022/10/29 09:20:56;;;;;;;13.30;2.83;;;20.60;99.90;;;;;;5096248;28;20182;-81
2022/10/29 09:23:28;;;;;;;10.60;3.03;;;20.80;99.90;;;;;;5096434;28;20175;-82
2022/10/29 09:26:04;;;;;;;15.03;3.33;;;21.00;99.90;;;;;;5096927;28;20231;-83
2022/10/29 09:28:42;;;;;;;11.97;3.13;;;21.00;99.90;;;;;;5096094;28;20178;-82
2022/10/29 09:31:30;;;;;;;12.30;3.40;;;21.20;99.90;;;;;;5095678;28;20668;-83
2022/10/29 09:34:01;;;;;;;9.50;3.00;;;21.20;99.90;;;;;;5097010;28;20258;-82
2022/10/29 09:36:29;;;;;;;8.30;2.73;;;21.40;99.90;;;;;;5097817;28;20210;-85
2022/10/29 09:39:01;;;;;;;10.53;3.03;;;21.70;99.90;;;;;;5097511;28;20172;-85
2022/10/29 09:41:31;;;;;;;15.97;2.93;;;21.70;99.90;;;;;;5096812;28;20216;-84
2022/10/29 09:44:14;;;;;;;13.30;3.13;;;21.70;99.90;;;;;;5095878;28;20176;-86
2022/10/29 09:47:19;;;;;;;13.07;3.60;;;21.70;99.90;;;;;;5097311;28;20164;-84
2022/10/29 09:49:50;;;;;;;11.40;3.00;;;21.70;99.90;;;;;;5073931;28;20229;-84
2022/10/29 09:52:19;;;;;;;11.57;2.83;;;22.20;99.90;;;;;;5095479;28;20678;-86
2022/10/29 09:54:48;;;;;;;14.67;3.30;;;22.40;99.90;;;;;;5096589;28;20662;-86
2022/10/29 09:57:23;;;;;;;8.43;2.33;;;22.80;99.90;;;;;;5096721;28;20228;-85
2022/10/29 09:59:54;;;;;;;10.93;2.70;;;23.40;99.90;;;;;;5096560;28;20556;-85
2022/10/29 10:02:33;;;;;;;14.57;2.47;;;23.40;99.90;;;;;;5096751;28;20638;-84
2022/10/29 10:05:13;;;;;;;10.73;3.07;;;23.60;99.90;;;;;;5095598;28;20180;-87
2022/10/29 10:08:01;;;;;;;11.37;2.47;;;23.90;99.90;;;;;;5095573;28;20682;-86
2022/10/29 10:10:27;;;;;;;11.73;2.60;;;24.00;98.90;;;;;;5100831;28;20172;-83
2022/10/29 10:13:02;;;;;;;8.57;2.80;;;24.00;99.90;;;;;;5094532;28;20575;-81
2022/10/29 10:15:31;;;;;;;10.10;2.57;;;24.20;99.10;;;;;;5095873;28;20160;-80
2022/10/29 10:17:57;;;;;;;7.43;2.30;;;24.20;99.00;;;;;;5096023;28;20172;-81
2022/10/29 10:20:27;;;;;;;9.03;2.73;;;24.50;98.20;;;;;;5094959;28;20187;-80
2022/10/29 10:22:53;;;;;;;10.33;2.93;;;24.50;98.20;;;;;;5095521;28;20671;-81
2022/10/29 10:25:38;;;;;;;8.63;2.80;;;24.20;97.90;;;;;;5094247;28;20181;-83
2022/10/29 10:28:29;;;;;;;14.67;2.97;;;24.30;99.00;;;;;;5096349;28;20700;-86
2022/10/29 10:31:11;;;;;;;10.30;2.83;;;24.80;97.70;;;;;;5095054;28;20196;-86
2022/10/29 10:33:48;;;;;;;16.77;3.77;;;24.80;98.10;;;;;;5095342;28;20218;-85
2022/10/29 10:36:14;;;;;;;14.47;3.30;;;24.50;96.80;;;;;;5094961;28;20564;-85
2022/10/29 10:38:44;;;;;;;14.80;3.93;;;24.30;96.60;;;;;;5094634;28;20205;-84
2022/10/29 10:41:11;;;;;;;10.20;3.20;;;24.20;97.10;;;;;;5095261;28;20254;-82
2022/10/29 10:43:42;;;;;;;8.67;3.17;;;24.20;97.50;;;;;;5094578;28;20183;-84
2022/10/29 10:46:28;;;;;;;8.90;2.63;;;23.90;97.90;;;;;;5094866;28;20564;-84
2022/10/29 10:49:11;;;;;;;8.27;3.20;;;23.90;98.00;;;;;;5095046;28;20638;-84
2022/10/29 10:51:41;;;;;;;13.07;2.50;;;24.10;97.40;;;;;;5095551;28;20248;-83
2022/10/29 10:54:27;;;;;;;10.33;3.03;;;24.10;97.60;;;;;;5095768;28;20162;-83
2022/10/29 10:56:58;;;;;;;9.50;2.47;;;24.00;97.00;;;;;;5094484;28;20268;-85
2022/10/29 10:59:41;;;;;;;8.40;2.90;;;24.10;98.40;;;;;;5094397;28;20184;-84
2022/10/29 11:02:26;;;;;;;11.43;2.50;;;24.60;97.80;;;;;;5094495;28;20196;-83
2022/10/29 11:05:11;;;;;;;9.80;3.33;;;24.70;97.00;;;;;;5095049;28;20579;-85
2022/10/29 11:07:41;;;;;;;9.67;2.73;;;25.10;96.90;;;;;;5094744;28;20218;-86
2022/10/29 11:10:12;;;;;;;16.13;3.27;;;25.20;96.20;;;;;;5094209;28;20177;-86
2022/10/29 11:12:48;;;;;;;15.47;2.20;;;25.40;96.00;;;;;;5094456;28;20295;-85
2022/10/29 11:15:40;;;;;;;11.47;3.07;;;25.40;95.90;;;;;;5093993;28;20194;-83
2022/10/29 11:18:11;;;;;;;9.53;2.63;;;25.50;95.20;;;;;;5095553;28;20187;-85
2022/10/29 11:20:39;;;;;;;13.37;2.97;;;25.40;96.20;;;;;;5094004;28;20562;-83
2022/10/29 11:23:29;;;;;;;11.93;3.00;;;25.80;95.30;;;;;;5094546;28;20192;-83
2022/10/29 11:26:06;;;;;;;13.70;3.53;;;26.30;94.50;;;;;;5094420;28;20212;-85
2022/10/29 11:29:11;;;;;;;11.53;2.90;;;26.70;94.90;;;;;;5095186;28;20210;-85
2022/10/29 11:31:51;;;;;;;15.67;3.40;;;27.50;93.80;;;;;;5079331;28;20244;-81
2022/10/29 11:34:34;;;;;;;14.13;2.70;;;27.60;92.70;;;;;;5095740;28;20181;-84
2022/10/29 11:37:21;;;;;;;12.23;2.80;;;28.10;91.30;;;;;;5094900;28;20166;-85
2022/10/29 11:40:04;;;;;;;9.53;3.00;;;28.40;91.40;;;;;;5097994;28;20173;-82
2022/10/29 11:42:30;;;;;;;12.47;2.90;;;28.50;86.40;;;;;;5099196;28;20203;-84
2022/10/29 11:44:58;;;;;;;12.17;2.60;;;28.30;87.00;;;;;;5097823;28;20264;-83
2022/10/29 11:47:35;;;;;;;12.87;2.80;;;28.20;85.20;;;;;;5097617;28;20238;-84
2022/10/29 11:50:33;;;;;;;9.43;2.63;;;28.20;86.20;;;;;;5098112;28;20176;-85
2022/10/29 11:53:08;;;;;;;11.20;3.07;;;28.60;88.90;;;;;;5096994;28;20216;-80
2022/10/29 11:56:07;;;;;;;11.43;3.10;;;28.70;85.30;;;;;;5098197;28;20684;-85
2022/10/29 11:58:56;;;;;;;10.57;2.80;;;29.30;86.50;;;;;;5098173;28;20181;-83
2022/10/29 12:02:06;;;;;;;10.90;2.37;;;29.80;89.00;;;;;;5098245;28;20241;-84
2022/10/29 12:04:45;;;;;;;13.17;2.80;;;30.30;80.70;;;;;;5098532;28;20199;-86
2022/10/29 12:07:23;;;;;;;10.43;2.63;;;30.70;80.40;;;;;;5098533;28;20181;-85
2022/10/29 12:10:13;;;;;;;8.10;2.57;;;30.30;75.50;;;;;;5102915;28;20184;-84
2022/10/29 12:12:58;;;;;;;11.20;2.63;;;30.70;74.80;;;;;;5098281;28;20211;-85
2022/10/29 12:15:49;;;;;;;10.97;2.40;;;30.60;74.90;;;;;;5099360;28;20185;-83
2022/10/29 12:18:25;;;;;;;9.97;2.93;;;30.00;72.20;;;;;;5097853;28;20267;-84
2022/10/29 12:21:08;;;;;;;15.10;3.97;;;29.80;76.30;;;;;;5097947;28;20265;-85
2022/10/29 12:23:43;;;;;;;11.53;2.60;;;30.10;73.50;;;;;;5099548;28;20254;-84
2022/10/29 12:26:25;;;;;;;8.97;2.80;;;30.30;69.10;;;;;;5098218;28;20208;-84
2022/10/29 12:29:00;;;;;;;16.27;2.80;;;30.30;69.80;;;;;;5098692;28;20500;-85
2022/10/29 12:31:54;;;;;;;13.03;2.97;;;30.40;68.60;;;;;;5097587;28;20213;-84
2022/10/29 12:34:24;;;;;;;11.40;2.40;;;31.00;70.30;;;;;;5098841;28;20181;-83
2022/10/29 12:37:16;;;;;;;14.77;3.07;;;31.60;68.00;;;;;;5097307;28;20174;-84
2022/10/29 12:39:49;;;;;;;12.60;2.77;;;31.90;64.00;;;;;;5098555;28;20246;-85
2022/10/29 12:42:22;;;;;;;14.93;3.63;;;32.10;64.90;;;;;;5096941;28;20230;-86
2022/10/29 12:45:11;;;;;;;9.93;3.07;;;32.10;69.30;;;;;;5099713;28;20217;-85
2022/10/29 12:47:53;;;;;;;8.10;2.77;;;32.40;70.20;;;;;;5097988;28;20180;-83
2022/10/29 12:51:02;;;;;;;10.63;2.77;;;32.70;65.20;;;;;;5096814;28;20176;-85
2022/10/29 12:53:40;;;;;;;11.97;2.97;;;32.70;61.10;;;;;;5069987;28;20208;-84
2022/10/29 12:56:08;;;;;;;11.37;2.90;;;32.40;63.10;;;;;;5097149;28;20179;-85
2022/10/29 12:58:49;;;;;;;10.50;3.20;;;31.80;62.70;;;;;;5096241;28;20177;-85
2022/10/29 13:01:27;;;;;;;13.07;2.83;;;30.30;63.90;;;;;;5097244;28;20189;-82
2022/10/29 13:03:56;;;;;;;10.17;3.10;;;30.20;65.50;;;;;;5098617;28;20530;-83
2022/10/29 13:06:40;;;;;;;7.80;2.97;;;29.40;65.30;;;;;;5098557;28;20271;-83
2022/10/29 13:09:33;;;;;;;8.03;2.73;;;28.70;66.20;;;;;;5097048;28;20183;-81
2022/10/29 13:12:02;;;;;;;14.93;2.63;;;28.60;66.10;;;;;;5098823;28;20565;-82
2022/10/29 13:14:31;;;;;;;10.90;2.63;;;28.40;66.70;;;;;;5098796;28;20580;-81
2022/10/29 13:16:59;;;;;;;8.50;2.60;;;27.90;69.20;;;;;;5098662;28;20714;-82
2022/10/29 13:19:45;;;;;;;4.67;2.50;;;27.90;70.40;;;;;;5096870;28;20173;-82
2022/10/29 13:22:13;;;;;;;16.63;3.00;;;27.90;72.60;;;;;;5096847;28;20249;-84
2022/10/29 13:24:39;;;;;;;12.03;3.27;;;27.90;74.90;;;;;;5096366;28;20197;-86
2022/10/29 13:27:27;;;;;;;11.53;3.07;;;28.00;71.70;;;;;;5097575;28;20177;-85
2022/10/29 13:30:14;;;;;;;11.17;3.83;;;28.10;72.50;;;;;;5097287;28;20187;-85
2022/10/29 13:32:40;;;;;;;9.20;3.83;;;28.60;71.70;;;;;;5097608;28;20200;-84
2022/10/29 13:35:17;;;;;;;9.40;3.10;;;28.90;76.40;;;;;;5097603;28;20271;-83
2022/10/29 13:38:04;;;;;;;8.60;2.70;;;29.30;85.20;;;;;;5097245;28;20630;-83
2022/10/29 13:40:30;;;;;;;8.87;3.40;;;29.30;85.70;;;;;;5096168;28;20181;-86
2022/10/29 13:43:08;;;;;;;10.13;3.03;;;28.70;74.50;;;;;;5097470;28;20281;-84
2022/10/29 13:45:37;;;;;;;10.03;2.97;;;28.30;82.30;;;;;;5097225;28;20638;-85
2022/10/29 13:48:36;;;;;;;9.40;2.73;;;27.70;90.00;;;;;;5096267;28;20172;-86
2022/10/29 13:51:10;;;;;;;9.30;2.40;;;27.10;90.80;;;;;;5084128;28;20673;-85
2022/10/29 13:53:53;;;;;;;6.40;2.10;;;27.10;90.50;;;;;;5095861;28;20199;-86
2022/10/29 13:56:52;;;;;;;7.67;2.20;;;26.50;91.00;;;;;;5100966;28;20228;-84
2022/10/29 13:59:49;;;;;;;18.97;2.83;;;25.90;91.80;;;;;;5066787;28;20183;-81
2022/10/29 14:02:38;;;;;;;14.20;3.23;;;25.50;92.50;;;;;;5094444;28;20222;-85
2022/10/29 14:05:24;;;;;;;9.93;2.80;;;25.10;94.80;;;;;;5094482;28;20173;-84
2022/10/29 14:08:08;;;;;;;11.40;2.73;;;24.80;96.70;;;;;;5094870;28;20278;-84
2022/10/29 14:10:45;;;;;;;19.20;3.20;;;24.50;97.10;;;;;;5094937;28;20263;-82
2022/10/29 14:13:22;;;;;;;16.97;3.07;;;24.20;97.70;;;;;;5093938;28;20746;-79
2022/10/29 14:16:06;;;;;;;16.37;3.63;;;24.10;98.60;;;;;;5093657;28;20260;-83
2022/10/29 14:18:36;;;;;;;22.17;4.10;;;23.90;99.80;;;;;;5095164;28;20178;-84
2022/10/29 14:21:12;;;;;;;15.93;4.10;;;23.60;99.90;;;;;;5094994;28;20553;-85
2022/10/29 14:23:39;;;;;;;18.70;3.67;;;23.60;99.90;;;;;;5093121;28;20186;-86
2022/10/29 14:26:15;;;;;;;19.67;3.63;;;23.40;99.90;;;;;;5094440;28;20226;-85
2022/10/29 14:28:40;;;;;;;60.20;6.03;;;23.30;99.90;;;;;;5094602;28;20172;-87
2022/10/29 14:31:20;;;;;;;35.83;4.93;;;23.20;99.90;;;;;;5093951;28;20207;-85
2022/10/29 14:33:55;;;;;;;32.90;4.63;;;23.10;99.90;;;;;;5094930;28;20201;-86
2022/10/29 14:36:38;;;;;;;29.07;6.03;;;23.10;99.90;;;;;;5094744;28;20612;-85
2022/10/29 14:39:22;;;;;;;18.40;4.60;;;23.10;99.90;;;;;;5095882;28;20240;-87
2022/10/29 14:41:51;;;;;;;22.87;4.40;;;23.00;99.90;;;;;;5094505;28;20195;-87
2022/10/29 14:44:19;;;;;;;25.10;5.90;;;22.90;99.90;;;;;;5095185;28;20286;-88
2022/10/29 14:46:57;;;;;;;11.53;4.03;;;22.90;99.90;;;;;;5096109;28;20179;-87
2022/10/29 14:49:24;;;;;;;28.40;4.73;;;22.90;99.90;;;;;;5094677;28;20179;-87
2022/10/29 14:51:54;;;;;;;20.13;4.43;;;22.90;99.90;;;;;;5094008;28;20240;-84
2022/10/29 14:54:39;;;;;;;27.13;4.80;;;22.90;99.90;;;;;;5096138;28;20532;-85
2022/10/29 14:57:17;;;;;;;28.03;5.00;;;23.00;99.90;;;;;;5094426;28;20659;-83
2022/10/29 14:59:50;;;;;;;29.17;4.63;;;23.00;99.90;;;;;;5095665;28;20152;-85
2022/10/29 15:02:16;;;;;;;16.70;4.33;;;22.90;99.90;;;;;;5094911;28;20203;-85
2022/10/29 15:04:48;;;;;;;10.03;5.13;;;22.80;99.90;;;;;;5095605;28;20709;-84
2022/10/29 15:07:36;;;;;;;16.43;4.83;;;22.90;99.90;;;;;;5094374;28;20191;-86
2022/10/29 15:10:25;;;;;;;19.57;6.13;;;22.80;99.90;;;;;;5094065;28;20188;-83
2022/10/29 15:12:51;;;;;;;29.67;7.07;;;22.80;99.90;;;;;;5096505;28;20203;-84
2022/10/29 15:15:17;;;;;;;17.30;5.73;;;22.70;99.90;;;;;;5098119;28;20191;-84
2022/10/29 15:18:15;;;;;;;21.43;5.83;;;22.50;99.90;;;;;;5098252;28;20633;-84
2022/10/29 15:20:40;;;;;;;18.60;4.70;;;22.30;99.90;;;;;;5097750;28;20180;-83
2022/10/29 15:23:15;;;;;;;9.90;4.73;;;22.10;99.90;;;;;;5097385;28;20199;-83
2022/10/29 15:25:45;;;;;;;19.57;4.47;;;21.90;99.90;;;;;;5097132;28;20171;-83
2022/10/29 15:28:20;;;;;;;16.77;4.30;;;21.70;99.90;;;;;;5097891;28;20255;-84
2022/10/29 15:30:45;;;;;;;14.57;3.77;;;21.50;99.90;;;;;;5096550;28;20206;-84
2022/10/29 15:33:16;;;;;;;19.27;4.20;;;21.20;99.90;;;;;;5097063;28;20215;-84
2022/10/29 15:35:50;;;;;;;15.97;3.63;;;21.00;99.90;;;;;;5103609;28;20156;-85
2022/10/29 15:38:34;;;;;;;15.90;3.67;;;20.90;99.90;;;;;;5098058;28;20164;-84
2022/10/29 15:41:18;;;;;;;12.43;3.50;;;20.60;99.90;;;;;;5098432;28;20200;-84
2022/10/29 15:43:55;;;;;;;16.57;3.37;;;20.60;99.90;;;;;;5098829;28;20173;-85
2022/10/29 15:46:21;;;;;;;23.73;5.10;;;20.40;99.90;;;;;;5098836;28;20175;-82
2022/10/29 15:48:47;;;;;;;12.57;3.73;;;20.30;99.90;;;;;;5099871;28;20172;-86
2022/10/29 15:51:13;;;;;;;13.50;3.90;;;20.10;99.90;;;;;;5100091;28;20201;-88
2022/10/29 15:53:39;;;;;;;18.30;3.80;;;20.00;99.90;;;;;;5097706;28;20267;-86
2022/10/29 15:56:05;;;;;;;10.90;4.17;;;19.90;99.90;;;;;;5097692;28;20217;-87
2022/10/29 15:58:32;;;;;;;8.90;3.50;;;19.80;99.90;;;;;;5100827;28;20185;-85
2022/10/29 16:00:58;;;;;;;18.63;4.97;;;19.60;99.90;;;;;;5100986;28;20175;-85
2022/10/29 16:03:25;;;;;;;13.13;3.70;;;19.60;99.90;;;;;;5103431;28;20268;-82
2022/10/29 16:05:59;;;;;;;22.70;4.00;;;19.50;99.90;;;;;;5100619;28;20176;-83
2022/10/29 16:08:45;;;;;;;26.53;4.27;;;19.30;99.90;;;;;;5102065;28;20185;-84
2022/10/29 16:11:19;;;;;;;12.53;3.57;;;19.10;99.90;;;;;;5102249;28;20205;-86
2022/10/29 16:13:45;;;;;;;13.80;3.93;;;19.10;99.90;;;;;;5104943;28;20149;-84
2022/10/29 16:16:16;;;;;;;18.23;4.40;;;18.90;99.90;;;;;;5102116;28;20293;-84
2022/10/29 16:18:43;;;;;;;18.60;4.40;;;18.80;99.90;;;;;;5101317;28;20344;-84
2022/10/29 16:21:16;;;;;;;19.37;5.03;;;18.60;99.90;;;;;;5102649;28;20273;-86
2022/10/29 16:23:41;;;;;;;19.73;4.50;;;18.60;99.90;;;;;;5102701;28;20502;-83
2022/10/29 16:26:16;;;;;;;13.23;4.53;;;18.50;99.90;;;;;;5101306;28;20185;-84
2022/10/29 16:28:42;;;;;;;28.73;10.37;;;18.40;99.90;;;;;;5103279;28;20184;-85
2022/10/29 16:31:19;;;;;;;20.07;7.67;;;18.20;99.90;;;;;;5102462;28;20212;-86
2022/10/29 16:33:47;;;;;;;26.20;12.67;;;18.10;99.90;;;;;;5103777;28;20162;-83
2022/10/29 16:36:12;;;;;;;25.67;10.50;;;18.10;99.90;;;;;;5103893;28;20254;-85
2022/10/29 16:38:38;;;;;;;23.80;9.40;;;18.00;99.90;;;;;;5102643;28;20201;-85
2022/10/29 16:41:04;;;;;;;24.57;9.47;;;17.90;99.90;;;;;;5104772;28;20175;-83
2022/10/29 16:43:30;;;;;;;22.03;8.90;;;;;;;;;;5102535;28;20181;-84
2022/10/29 16:45:56;;;;;;;20.47;7.30;;;17.70;99.90;;;;;;5102646;28;20654;-84
2022/10/29 16:48:22;;;;;;;23.43;7.93;;;;;;;;;;5103685;28;20177;-85
2022/10/29 16:50:48;;;;;;;17.60;6.90;;;;;;;;;;5101866;28;20207;-84
2022/10/29 16:53:13;;;;;;;16.23;6.93;;;17.50;99.90;;;;;;5101191;28;20203;-85
2022/10/29 16:55:40;;;;;;;21.67;7.83;;;17.40;99.90;;;;;;5101152;28;20206;-86
2022/10/29 16:58:12;;;;;;;18.10;7.73;;;17.40;99.90;;;;;;5103091;28;20164;-83
2022/10/29 17:00:38;;;;;;;18.07;10.23;;;17.30;99.90;;;;;;5100529;28;20207;-85
2022/10/29 17:03:05;;;;;;;20.30;11.90;;;17.20;99.90;;;;;;5098417;28;20197;-85
2022/10/29 17:05:38;;;;;;;20.77;9.47;;;17.20;99.90;;;;;;5098742;28;20276;-86
2022/10/29 17:08:05;;;;;;;22.87;9.97;;;17.20;99.90;;;;;;5099205;28;20173;-84
2022/10/29 17:10:30;;;;;;;24.77;9.67;;;17.10;99.90;;;;;;5099411;28;20181;-83
2022/10/29 17:12:57;;;;;;;24.47;9.43;;;17.10;99.90;;;;;;5098628;28;20556;-87
2022/10/29 17:15:24;;;;;;;19.37;9.53;;;;;;;;;;5101378;28;20626;-84
2022/10/29 17:17:50;;;;;;;24.03;11.30;;;;;;;;;;5099586;28;20181;-83
2022/10/29 17:20:16;;;;;;;19.30;12.03;;;17.00;99.90;;;;;;5099016;28;20213;-81
2022/10/29 17:22:42;;;;;;;20.57;12.50;;;17.00;99.90;;;;;;5099526;28;20196;-83
2022/10/29 17:25:08;;;;;;;21.07;9.33;;;17.00;99.90;;;;;;5099895;28;20170;-84
2022/10/29 17:27:34;;;;;;;19.67;9.33;;;;;;;;;;5103202;28;20627;-86
2022/10/29 17:30:00;;;;;;;21.67;8.40;;;17.00;99.90;;;;;;5099602;28;20183;-84
2022/10/29 17:32:31;;;;;;;17.93;8.03;;;17.00;99.90;;;;;;5099357;28;20208;-85
2022/10/29 17:34:57;;;;;;;19.27;7.47;;;16.90;99.90;;;;;;5099964;28;20241;-84
2022/10/29 17:37:23;;;;;;;16.37;8.13;;;16.80;99.90;;;;;;5097936;28;20185;-85
2022/10/29 17:39:49;;;;;;;19.20;8.43;;;;;;;;;;5099743;28;20165;-85
2022/10/29 17:42:15;;;;;;;16.47;8.17;;;16.90;99.90;;;;;;5098822;28;20292;-82
2022/10/29 17:44:41;;;;;;;15.60;7.50;;;;;;;;;;5099459;28;20721;-84
2022/10/29 17:47:07;;;;;;;18.67;7.77;;;16.80;99.90;;;;;;5098797;28;20174;-83
2022/10/29 17:49:33;;;;;;;17.13;7.87;;;;;;;;;;5099030;28;20260;-84
2022/10/29 17:51:58;;;;;;;18.37;7.20;;;16.80;99.90;;;;;;5097927;28;20227;-83
2022/10/29 17:54:26;;;;;;;18.60;6.83;;;;;;;;;;5099514;28;20178;-83
2022/10/29 17:56:52;;;;;;;11.97;5.63;;;;;;;;;;5099822;28;20531;-83
2022/10/29 17:59:18;;;;;;;9.17;4.87;;;;;;;;;;5098737;28;20182;-83
2022/10/29 18:01:44;;;;;;;12.83;5.93;;;;;;;;;;5099035;28;20206;-85
2022/10/29 18:04:10;;;;;;;15.00;4.73;;;16.50;99.90;;;;;;5099331;28;20178;-84
2022/10/29 18:06:36;;;;;;;12.50;5.13;;;16.60;99.90;;;;;;5099467;28;20267;-83
2022/10/29 18:09:02;;;;;;;14.37;4.90;;;;;;;;;;5099531;28;20205;-82
2022/10/29 18:11:28;;;;;;;11.13;5.03;;;16.20;99.90;;;;;;5101824;28;20209;-83
2022/10/29 18:13:55;;;;;;;18.47;5.03;;;16.10;99.90;;;;;;5099035;28;20575;-83
2022/10/29 18:16:24;;;;;;;14.53;5.77;;;15.90;99.90;;;;;;5099090;28;20566;-83
2022/10/29 18:18:53;;;;;;;12.43;5.73;;;16.10;99.90;;;;;;5097836;28;20181;-84
2022/10/29 18:21:20;;;;;;;16.43;5.30;;;16.00;99.90;;;;;;5098962;28;20534;-84
2022/10/29 18:23:46;;;;;;;12.17;5.77;;;;;;;;;;5097878;28;20182;-83
2022/10/29 18:26:33;;;;;;;14.63;5.07;;;16.10;99.90;;;;;;5098246;28;20182;-86
2022/10/29 18:29:06;;;;;;;22.97;6.33;;;15.80;99.90;;;;;;5097200;28;20181;-84
2022/10/29 18:31:32;;;;;;;13.30;5.83;;;15.90;99.90;;;;;;5098977;28;20207;-84
2022/10/29 18:34:00;;;;;;;18.70;5.10;;;16.00;99.90;;;;;;5097527;28;20182;-84
2022/10/29 18:36:26;;;;;;;17.80;5.07;;;16.00;99.90;;;;;;5098784;28;20180;-84
2022/10/29 18:38:54;;;;;;;17.63;4.80;;;16.00;99.90;;;;;;5099108;28;20173;-84
2022/10/29 18:41:20;;;;;;;17.30;5.40;;;;;;;;;;5099873;28;20204;-88
2022/10/29 18:43:46;;;;;;;14.83;4.47;;;;;;;;;;5099856;28;20174;-86
2022/10/29 18:46:12;;;;;;;12.97;4.77;;;;;;;;;;5099767;28;20256;-87
2022/10/29 18:48:40;;;;;;;11.90;3.90;;;16.00;99.90;;;;;;5098391;28;20189;-85
2022/10/29 18:51:10;;;;;;;9.30;4.90;;;16.00;99.90;;;;;;5099315;28;20193;-86
2022/10/29 18:53:37;;;;;;;7.43;4.53;;;16.00;99.90;;;;;;5099400;28;20270;-86
2022/10/29 18:56:09;;;;;;;15.33;4.27;;;16.00;99.90;;;;;;5099234;28;20258;-85
2022/10/29 18:58:34;;;;;;;13.30;5.13;;;16.00;99.90;;;;;;5099120;28;20179;-85
2022/10/29 19:01:05;;;;;;;16.60;4.83;;;16.00;99.90;;;;;;5095241;28;20185;-83
2022/10/29 19:03:31;;;;;;;11.93;4.63;;;;;;;;;;5096538;28;20185;-83
2022/10/29 19:06:04;;;;;;;11.97;4.27;;;16.10;99.90;;;;;;5097088;28;20217;-84
2022/10/29 19:08:32;;;;;;;11.67;4.33;;;16.10;99.90;;;;;;5097269;28;20534;-85
2022/10/29 19:11:02;;;;;;;10.03;4.40;;;16.20;99.90;;;;;;5097075;28;20201;-83
2022/10/29 19:13:28;;;;;;;12.20;4.97;;;16.20;99.90;;;;;;5098060;28;20197;-84
2022/10/29 19:15:59;;;;;;;14.60;4.57;;;16.30;99.90;;;;;;5099890;28;20200;-83
2022/10/29 19:18:25;;;;;;;12.20;4.83;;;16.30;99.90;;;;;;5098315;28;20192;-81
2022/10/29 19:20:51;;;;;;;10.40;4.10;;;16.30;99.90;;;;;;5097403;28;20181;-83
2022/10/29 19:23:16;;;;;;;12.83;4.43;;;;;;;;;;5097788;28;20202;-81
2022/10/29 19:25:42;;;;;;;17.20;4.60;;;16.30;99.90;;;;;;5099557;28;20191;-84
2022/10/29 19:28:08;;;;;;;12.50;3.87;;;;;;;;;;5097763;28;20183;-82
2022/10/29 19:30:34;;;;;;;10.13;3.57;;;16.30;99.90;;;;;;5097449;28;20202;-84
2022/10/29 19:32:59;;;;;;;13.70;4.17;;;16.30;99.90;;;;;;5098095;28;20217;-83
2022/10/29 19:35:25;;;;;;;9.93;4.30;;;16.30;99.90;;;;;;5097469;28;20541;-82
2022/10/29 19:37:51;;;;;;;12.33;3.70;;;16.40;99.90;;;;;;5098399;28;20257;-83
2022/10/29 19:40:16;;;;;;;13.40;4.73;;;16.40;99.90;;;;;;5097259;28;20195;-83
2022/10/29 19:42:42;;;;;;;13.70;3.57;;;16.40;99.90;;;;;;5098052;28;20210;-82
2022/10/29 19:45:08;;;;;;;12.17;3.60;;;17.00;99.90;;;;;;5098047;28;20212;-83
2022/10/29 19:47:34;;;;;;;11.20;4.00;;;16.40;99.90;;;;;;5098748;28;20178;-82
2022/10/29 19:50:00;;;;;;;8.70;3.53;;;;;;;;;;5097447;28;20612;-83
2022/10/29 19:52:26;;;;;;;11.30;3.87;;;16.40;99.90;;;;;;5096918;28;20217;-84
2022/10/29 19:54:52;;;;;;;8.77;4.03;;;16.40;99.90;;;;;;5099122;28;20227;-82